sensor_id;sensor_type;location;lat;lon;timestamp;temperature;humidity
17994;DHT22;9122;48.406;9.984;2023-01-01T10:28:58;16.10;91.00
17994;DHT22;9122;48.406;9.984;2023-01-01T11:03:17;15.60;91.80
17994;DHT22;9122;48.406;9.984;2023-01-01T11:06:21;15.50;91.80
17994;DHT22;9122;48.406;9.984;2023-01-01T11:09:28;15.50;91.90
17994;DHT22;9122;48.406;9.984;2023-01-01T11:12:20;15.40;91.60
17994;DHT22;9122;48.406;9.984;2023-01-01T11:15:18;15.30;91.50
17994;DHT22;9122;48.406;9.984;2023-01-01T11:18:05;15.40;91.60
17994;DHT22;9122;48.406;9.984;2023-01-01T11:20:53;15.40;91.70
17994;DHT22;9122;48.406;9.984;2023-01-01T11:23:38;15.40;91.40
17994;DHT22;9122;48.406;9.984;2023-01-01T11:26:23;15.50;91.40
17994;DHT22;9122;48.406;9.984;2023-01-01T11:32:00;15.50;91.00
17994;DHT22;9122;48.406;9.984;2023-01-01T11:34:48;15.50;90.90
17994;DHT22;9122;48.406;9.984;2023-01-01T11:37:39;15.60;91.00
17994;DHT22;9122;48.406;9.984;2023-01-01T11:40:49;15.60;91.00
17994;DHT22;9122;48.406;9.984;2023-01-01T11:43:44;15.70;91.00
17994;DHT22;9122;48.406;9.984;2023-01-01T11:46:37;15.70;91.10
17994;DHT22;9122;48.406;9.984;2023-01-01T11:57:31;16.30;91.30
17994;DHT22;9122;48.406;9.984;2023-01-01T12:06:29;15.90;90.30
17994;DHT22;9122;48.406;9.984;2023-01-01T12:09:23;16.00;90.20
17994;DHT22;9122;48.406;9.984;2023-01-01T12:12:32;16.00;90.20
17994;DHT22;9122;48.406;9.984;2023-01-01T12:21:32;16.10;90.00
17994;DHT22;9122;48.406;9.984;2023-01-01T12:24:18;16.20;90.00
17994;DHT22;9122;48.406;9.984;2023-01-01T12:27:14;16.20;89.90
17994;DHT22;9122;48.406;9.984;2023-01-01T12:43:09;16.30;89.50
17994;DHT22;9122;48.406;9.984;2023-01-01T12:53:18;16.40;90.00
17994;DHT22;9122;48.406;9.984;2023-01-01T12:59:28;16.40;89.80
17994;DHT22;9122;48.406;9.984;2023-01-01T13:02:21;16.40;89.30
17994;DHT22;9122;48.406;9.984;2023-01-01T13:08:22;16.50;89.00
17994;DHT22;9122;48.406;9.984;2023-01-01T13:11:07;16.50;88.90
17994;DHT22;9122;48.406;9.984;2023-01-01T13:13:52;16.60;88.80
17994;DHT22;9122;48.406;9.984;2023-01-01T13:16:39;16.60;88.20
17994;DHT22;9122;48.406;9.984;2023-01-01T13:19:32;16.60;88.10
17994;DHT22;9122;48.406;9.984;2023-01-01T13:22:35;16.70;88.10
17994;DHT22;9122;48.406;9.984;2023-01-01T13:25:23;16.70;87.40
17994;DHT22;9122;48.406;9.984;2023-01-01T16:29:39;15.70;90.80
17994;DHT22;9122;48.406;9.984;2023-01-01T16:32:27;15.60;90.90
17994;DHT22;9122;48.406;9.984;2023-01-01T16:35:15;15.60;90.90
17994;DHT22;9122;48.406;9.984;2023-01-01T16:38:06;15.50;91.30
17994;DHT22;9122;48.406;9.984;2023-01-01T16:40:57;16.80;92.00
17994;DHT22;9122;48.406;9.984;2023-01-01T16:43:42;15.50;92.70
17994;DHT22;9122;48.406;9.984;2023-01-01T16:46:30;15.40;91.40
17994;DHT22;9122;48.406;9.984;2023-01-01T16:49:21;15.40;92.30
17994;DHT22;9122;48.406;9.984;2023-01-01T16:52:09;15.50;92.20
17994;DHT22;9122;48.406;9.984;2023-01-01T16:57:49;15.30;90.70
17994;DHT22;9122;48.406;9.984;2023-01-01T17:00:38;15.30;91.80
17994;DHT22;9122;48.406;9.984;2023-01-01T17:03:26;15.20;90.70
17994;DHT22;9122;48.406;9.984;2023-01-01T17:06:11;16.30;92.40
17994;DHT22;9122;48.406;9.984;2023-01-01T17:11:59;15.10;91.30
17994;DHT22;9122;48.406;9.984;2023-01-01T17:20:16;15.00;91.10
17994;DHT22;9122;48.406;9.984;2023-01-01T19:33:00;13.00;92.40
17994;DHT22;9122;48.406;9.984;2023-01-01T19:35:45;12.90;92.50
17994;DHT22;9122;48.406;9.984;2023-01-01T19:38:41;12.90;92.70
17994;DHT22;9122;48.406;9.984;2023-01-01T19:41:29;12.90;92.60
17994;DHT22;9122;48.406;9.984;2023-01-01T19:44:14;12.80;92.60
17994;DHT22;9122;48.406;9.984;2023-01-01T19:46:58;12.80;92.90
17994;DHT22;9122;48.406;9.984;2023-01-01T19:49:43;12.80;92.70
17994;DHT22;9122;48.406;9.984;2023-01-01T19:52:28;11.10;92.40
17994;DHT22;9122;48.406;9.984;2023-01-01T19:55:13;12.70;93.10
17994;DHT22;9122;48.406;9.984;2023-01-01T19:57:57;12.70;93.30
17994;DHT22;9122;48.406;9.984;2023-01-01T20:00:42;12.70;93.00
17994;DHT22;9122;48.406;9.984;2023-01-01T20:03:27;12.70;93.10
17994;DHT22;9122;48.406;9.984;2023-01-01T20:06:11;12.60;93.00
17994;DHT22;9122;48.406;9.984;2023-01-01T20:08:56;12.60;92.90
17994;DHT22;9122;48.406;9.984;2023-01-01T20:11:40;12.60;92.70
17994;DHT22;9122;48.406;9.984;2023-01-01T20:14:25;12.50;92.70
17994;DHT22;9122;48.406;9.984;2023-01-01T20:17:10;12.40;92.60
17994;DHT22;9122;48.406;9.984;2023-01-01T20:19:55;12.40;92.70
17994;DHT22;9122;48.406;9.984;2023-01-01T20:22:48;12.40;92.50
17994;DHT22;9122;48.406;9.984;2023-01-01T20:25:33;12.30;92.60
17994;DHT22;9122;48.406;9.984;2023-01-01T20:28:18;12.30;92.80
17994;DHT22;9122;48.406;9.984;2023-01-01T20:31:21;12.20;92.80
17994;DHT22;9122;48.406;9.984;2023-01-01T20:34:05;12.20;92.90
17994;DHT22;9122;48.406;9.984;2023-01-01T20:36:51;12.10;92.80
17994;DHT22;9122;48.406;9.984;2023-01-01T20:39:54;12.10;92.90
17994;DHT22;9122;48.406;9.984;2023-01-01T20:45:23;12.00;92.20
17994;DHT22;9122;48.406;9.984;2023-01-01T20:48:08;12.00;92.80
17994;DHT22;9122;48.406;9.984;2023-01-01T20:50:53;11.90;92.70
17994;DHT22;9122;48.406;9.984;2023-01-01T20:53:37;11.90;92.90
17994;DHT22;9122;48.406;9.984;2023-01-01T20:56:22;11.80;92.90
17994;DHT22;9122;48.406;9.984;2023-01-01T20:59:07;11.80;93.00
17994;DHT22;9122;48.406;9.984;2023-01-01T21:01:53;11.80;93.40
17994;DHT22;9122;48.406;9.984;2023-01-01T21:04:38;11.80;93.80
17994;DHT22;9122;48.406;9.984;2023-01-01T21:07:23;11.70;93.60
17994;DHT22;9122;48.406;9.984;2023-01-01T21:12:53;11.70;93.00
17994;DHT22;9122;48.406;9.984;2023-01-01T21:15:38;11.80;93.20
17994;DHT22;9122;48.406;9.984;2023-01-01T21:18:29;11.70;93.10
17994;DHT22;9122;48.406;9.984;2023-01-01T21:21:22;11.60;93.10
17994;DHT22;9122;48.406;9.984;2023-01-01T21:27:16;11.50;93.50
17994;DHT22;9122;48.406;9.984;2023-01-01T21:30:10;11.50;93.60
17994;DHT22;9122;48.406;9.984;2023-01-01T21:32:55;11.50;93.60
17994;DHT22;9122;48.406;9.984;2023-01-01T21:35:39;11.50;93.80
17994;DHT22;9122;48.406;9.984;2023-01-01T21:38:25;11.40;93.60
17994;DHT22;9122;48.406;9.984;2023-01-01T21:41:16;11.40;93.60
17994;DHT22;9122;48.406;9.984;2023-01-01T21:44:02;11.40;93.40
17994;DHT22;9122;48.406;9.984;2023-01-01T21:46:47;11.30;93.50
17994;DHT22;9122;48.406;9.984;2023-01-01T21:49:35;11.30;93.20
17994;DHT22;9122;48.406;9.984;2023-01-01T21:52:22;11.20;93.30
17994;DHT22;9122;48.406;9.984;2023-01-01T21:55:18;11.20;93.30
17994;DHT22;9122;48.406;9.984;2023-01-01T21:58:11;11.10;93.30
17994;DHT22;9122;48.406;9.984;2023-01-01T22:01:42;11.10;93.40
17994;DHT22;9122;48.406;9.984;2023-01-01T22:04:40;11.10;93.30
17994;DHT22;9122;48.406;9.984;2023-01-01T22:07:33;11.00;93.60
17994;DHT22;9122;48.406;9.984;2023-01-01T22:10:28;11.00;93.60
17994;DHT22;9122;48.406;9.984;2023-01-01T22:13:16;11.00;93.70
17994;DHT22;9122;48.406;9.984;2023-01-01T22:16:13;10.90;93.90
17994;DHT22;9122;48.406;9.984;2023-01-01T22:18:59;10.90;93.90
17994;DHT22;9122;48.406;9.984;2023-01-01T22:21:44;10.80;94.00
17994;DHT22;9122;48.406;9.984;2023-01-01T22:24:33;10.80;94.20
17994;DHT22;9122;48.406;9.984;2023-01-01T22:27:31;10.80;94.40
17994;DHT22;9122;48.406;9.984;2023-01-01T22:33:17;10.80;94.50
17994;DHT22;9122;48.406;9.984;2023-01-01T22:36:13;10.80;94.70
17994;DHT22;9122;48.406;9.984;2023-01-01T22:39:28;10.80;94.70
17994;DHT22;9122;48.406;9.984;2023-01-01T22:42:18;10.80;94.70
17994;DHT22;9122;48.406;9.984;2023-01-01T22:45:06;10.80;94.80
17994;DHT22;9122;48.406;9.984;2023-01-01T22:48:02;10.80;94.70
17994;DHT22;9122;48.406;9.984;2023-01-01T22:50:49;10.80;94.50
17994;DHT22;9122;48.406;9.984;2023-01-01T22:53:37;10.70;94.50
17994;DHT22;9122;48.406;9.984;2023-01-01T22:56:21;10.70;94.60
17994;DHT22;9122;48.406;9.984;2023-01-01T22:59:06;10.70;94.80
17994;DHT22;9122;48.406;9.984;2023-01-01T23:01:56;10.70;94.90
17994;DHT22;9122;48.406;9.984;2023-01-01T23:04:41;10.60;94.90
17994;DHT22;9122;48.406;9.984;2023-01-01T23:07:28;10.60;94.80
17994;DHT22;9122;48.406;9.984;2023-01-01T23:10:14;10.60;94.40
17994;DHT22;9122;48.406;9.984;2023-01-01T23:12:58;10.70;94.80
17994;DHT22;9122;48.406;9.984;2023-01-01T23:16:15;10.50;95.00
17994;DHT22;9122;48.406;9.984;2023-01-01T23:19:00;10.50;95.70
17994;DHT22;9122;48.406;9.984;2023-01-01T23:21:44;10.50;95.00
17994;DHT22;9122;48.406;9.984;2023-01-01T23:24:31;10.40;95.00
17994;DHT22;9122;48.406;9.984;2023-01-01T23:27:15;10.50;95.20
17994;DHT22;9122;48.406;9.984;2023-01-01T23:30:05;10.50;95.60
17994;DHT22;9122;48.406;9.984;2023-01-01T23:35:35;10.40;95.10
17994;DHT22;9122;48.406;9.984;2023-01-01T23:38:20;10.50;95.60
17994;DHT22;9122;48.406;9.984;2023-01-01T23:41:05;10.40;95.90
17994;DHT22;9122;48.406;9.984;2023-01-01T23:43:50;9.60;95.60
17994;DHT22;9122;48.406;9.984;2023-01-01T23:46:35;10.40;95.90
17994;DHT22;9122;48.406;9.984;2023-01-01T23:49:21;10.40;95.80
17994;DHT22;9122;48.406;9.984;2023-01-01T23:52:06;10.30;95.80
17994;DHT22;9122;48.406;9.984;2023-01-01T23:57:36;10.30;95.40
